Time;durP1;ratioP1;P1;durP2;ratioP2;P2;SDS_P1;SDS_P2;PMS_P1;PMS_P2;Temp;Humidity;BMP_temperature;BMP_pressure;BME280_temperature;BME280_humidity;BME280_pressure;Samples;Min_cycle;Max_cycle;Signal;HPM_P1;HPM_P2
2021/11/16 00:00:17;;;;;;;12.82;6.03;;;;;;;-2.07;77.84;102312.05;1801106;79;21175;-76
2021/11/16 00:03:24;;;;;;;12.78;6.55;;;;;;;-2.07;77.75;102312.05;1801060;79;21216;-76
2021/11/16 00:06:29;;;;;;;15.63;6.80;;;;;;;-2.07;77.64;102308.03;1801264;79;21286;-76
2021/11/16 00:09:35;;;;;;;11.48;5.85;;;;;;;-2.11;77.66;102306.39;1801469;79;21278;-76
2021/11/16 00:12:41;;;;;;;13.35;6.10;;;;;;;-2.12;77.81;102302.83;1800023;79;21289;-77
2021/11/16 00:15:49;;;;;;;11.53;6.10;;;;;;;-2.11;77.83;102314.44;1799972;79;21290;-77
2021/11/16 00:18:58;;;;;;;13.43;6.03;;;;;;;-2.15;77.95;102307.41;1799980;79;21336;-76
2021/11/16 00:22:07;;;;;;;9.20;4.75;;;;;;;-2.18;78.09;102312.84;1801733;79;21357;-76
2021/11/16 00:28:22;;;;;;;19.60;7.28;;;;;;;-2.22;78.32;102311.18;1810799;79;20220;-77
2021/11/16 00:31:31;;;;;;;14.10;7.03;;;;;;;-2.26;78.50;102306.36;1815212;79;21324;-76
2021/11/16 00:34:35;;;;;;;11.50;5.67;;;;;;;-2.28;78.64;102307.34;1814965;79;21964;-77
2021/11/16 00:37:42;;;;;;;11.05;6.30;;;;;;;-2.29;78.77;102306.94;1815514;79;21605;-77
2021/11/16 00:40:50;;;;;;;11.63;5.55;;;;;;;-2.34;78.79;102300.38;1815483;79;21495;-77
2021/11/16 00:43:55;;;;;;;11.97;5.67;;;;;;;-2.38;78.97;102296.89;1815479;79;21370;-76
2021/11/16 00:47:00;;;;;;;15.90;6.10;;;;;;;-2.40;79.16;102309.48;1815426;78;21247;-77
2021/11/16 00:50:06;;;;;;;15.35;6.08;;;;;;;-2.41;79.23;102313.06;1814230;79;21273;-77
2021/11/16 00:53:12;;;;;;;18.35;7.33;;;;;;;-2.41;79.24;102313.52;1815899;79;21286;-77
2021/11/16 00:56:19;;;;;;;11.30;6.03;;;;;;;-2.44;79.25;102304.25;1814266;79;21245;-76
2021/11/16 00:59:24;;;;;;;13.85;6.83;;;;;;;-2.49;79.30;102296.78;1815774;79;22183;-77
2021/11/16 01:02:30;;;;;;;10.10;5.83;;;;;;;-2.54;79.36;102304.98;1814067;79;21300;-77
2021/11/16 01:05:35;;;;;;;10.48;5.60;;;;;;;-2.55;79.39;102300.52;1814538;79;21321;-77
2021/11/16 01:08:41;;;;;;;10.00;5.75;;;;;;;-2.56;79.35;102301.45;1815585;79;21325;-77
2021/11/16 01:11:47;;;;;;;10.93;5.47;;;;;;;-2.58;79.34;102295.27;1814969;79;21955;-77
2021/11/16 01:14:53;;;;;;;8.18;5.05;;;;;;;-2.59;79.35;102294.39;1815261;79;21183;-77
2021/11/16 01:17:58;;;;;;;12.68;6.15;;;;;;;-2.59;79.31;102300.19;1814094;79;21285;-77
2021/11/16 01:21:04;;;;;;;11.88;6.25;;;;;;;-2.58;79.27;102296.14;1815846;79;21840;-77
2021/11/16 01:24:11;;;;;;;11.00;6.05;;;;;;;-2.58;79.17;102293.47;1815676;79;21345;-77
2021/11/16 01:27:19;;;;;;;12.60;6.08;;;;;;;-2.55;78.99;102298.30;1815055;79;22344;-76
2021/11/16 01:30:27;;;;;;;10.73;5.57;;;;;;;-2.52;78.89;102301.78;1814505;79;21900;-77
2021/11/16 01:33:41;;;;;;;10.63;5.67;;;;;;;-2.51;78.65;102306.21;1815816;79;21179;-77
2021/11/16 01:36:47;;;;;;;12.15;6.83;;;;;;;-2.51;78.56;102303.53;1815784;79;21226;-76
2021/11/16 01:39:52;;;;;;;10.95;5.42;;;;;;;-2.51;78.30;102304.87;1815631;79;21798;-76
2021/11/16 01:43:00;;;;;;;10.40;5.10;;;;;;;-2.52;78.29;102300.44;1814588;79;21319;-76
2021/11/16 01:46:13;;;;;;;11.00;6.08;;;;;;;-2.50;78.36;102305.28;1814245;79;21321;-76
2021/11/16 01:49:18;;;;;;;11.35;5.03;;;;;;;-2.52;78.33;102308.48;1816482;79;21297;-76
2021/11/16 01:52:24;;;;;;;12.63;5.62;;;;;;;-2.57;78.50;102306.40;1816536;79;21152;-76
2021/11/16 01:55:30;;;;;;;11.85;5.75;;;;;;;-2.60;78.75;102303.80;1815039;79;21341;-76
2021/11/16 01:58:36;;;;;;;11.30;5.53;;;;;;;-2.66;79.07;102301.30;1814173;79;21253;-77
2021/11/16 02:01:41;;;;;;;11.18;5.78;;;;;;;-2.70;79.32;102302.30;1815696;79;21282;-77
2021/11/16 02:04:49;;;;;;;10.45;5.45;;;;;;;-2.75;79.48;102308.25;1815833;79;21345;-76
2021/11/16 02:07:56;;;;;;;13.88;5.55;;;;;;;-2.77;79.58;102305.63;1815965;79;21159;-76
2021/11/16 02:11:02;;;;;;;10.88;6.12;;;;;;;-2.80;79.67;102306.16;1815645;79;21305;-76
2021/11/16 02:14:07;;;;;;;13.60;6.62;;;;;;;-2.85;79.79;102311.18;1816752;79;21301;-76
2021/11/16 02:17:12;;;;;;;14.75;7.35;;;;;;;-2.90;79.88;102310.43;1815859;79;22539;-76
2021/11/16 02:20:18;;;;;;;14.68;6.83;;;;;;;-2.90;79.89;102306.41;1815574;79;21919;-76
2021/11/16 02:23:23;;;;;;;11.57;5.40;;;;;;;-2.88;79.85;102307.70;1815671;79;21168;-76
2021/11/16 02:26:29;;;;;;;13.35;6.15;;;;;;;-2.88;79.85;102317.08;1814956;79;21195;-76
2021/11/16 02:29:34;;;;;;;17.73;6.72;;;;;;;-2.87;79.75;102318.83;1813222;79;21194;-76
2021/11/16 02:32:40;;;;;;;10.88;5.60;;;;;;;-2.88;79.58;102312.59;1814405;79;21783;-76
2021/11/16 02:35:46;;;;;;;13.98;6.08;;;;;;;-2.88;79.46;102311.25;1815601;79;21160;-76
2021/11/16 02:38:52;;;;;;;13.88;7.20;;;;;;;-2.88;79.31;102316.61;1815206;79;21702;-76
2021/11/16 02:41:59;;;;;;;13.50;6.05;;;;;;;-2.88;79.15;102325.98;1816656;79;21262;-76
2021/11/16 02:45:04;;;;;;;13.40;7.28;;;;;;;-2.87;78.96;102324.18;1815538;79;21361;-76
2021/11/16 02:48:12;;;;;;;27.67;17.67;;;;;;;-2.89;78.76;102326.03;1815572;79;21286;-76
2021/11/16 02:51:18;;;;;;;57.73;46.02;;;;;;;-2.92;78.66;102320.75;1815457;79;21741;-77
2021/11/16 02:54:27;;;;;;;57.60;45.92;;;;;;;-2.99;78.65;102326.73;1815432;79;21171;-77
2021/11/16 02:57:32;;;;;;;41.50;31.33;;;;;;;-3.02;78.79;102329.48;1814643;79;21278;-76
2021/11/16 03:00:37;;;;;;;19.42;11.18;;;;;;;-3.03;78.87;102318.83;1815751;79;21714;-76
2021/11/16 03:03:46;;;;;;;18.82;9.20;;;;;;;-3.03;78.89;102318.37;1815832;79;21373;-76
2021/11/16 03:06:52;;;;;;;19.55;6.40;;;;;;;-3.02;78.75;102319.24;1815216;79;21380;-77
2021/11/16 03:09:58;;;;;;;14.80;6.50;;;;;;;-3.00;78.80;102316.95;1815409;79;21309;-76
2021/11/16 03:13:05;;;;;;;12.68;5.25;;;;;;;-2.99;78.60;102314.69;1815504;79;21817;-76
2021/11/16 03:16:15;;;;;;;15.43;6.42;;;;;;;-2.97;78.54;102321.33;1815379;78;21385;-76
2021/11/16 03:19:20;;;;;;;9.10;5.50;;;;;;;-2.97;78.48;102312.84;1816436;79;21912;-76
2021/11/16 03:22:36;;;;;;;9.23;5.62;;;;;;;-2.93;78.52;102309.16;1814006;79;21817;-76
2021/11/16 03:25:42;;;;;;;11.90;6.37;;;;;;;-2.88;78.34;102303.68;1815390;79;21171;-76
2021/11/16 03:28:48;;;;;;;11.68;5.58;;;;;;;-2.88;78.11;102308.58;1815320;79;21191;-76
2021/11/16 03:31:53;;;;;;;11.12;6.22;;;;;;;-2.86;78.10;102305.88;1813904;79;22545;-76
2021/11/16 03:34:58;;;;;;;8.80;5.60;;;;;;;-2.85;77.94;102296.45;1815597;79;21286;-76
2021/11/16 03:38:04;;;;;;;15.38;5.58;;;;;;;-2.87;77.75;102300.08;1814536;79;21282;-76
2021/11/16 03:41:10;;;;;;;12.90;6.00;;;;;;;-2.91;77.67;102303.78;1815543;79;21218;-76
2021/11/16 03:44:16;;;;;;;10.65;5.37;;;;;;;-2.93;77.74;102301.13;1815451;79;21263;-76
2021/11/16 03:47:22;;;;;;;14.90;6.33;;;;;;;-2.98;77.66;102296.36;1814914;79;21328;-76
2021/11/16 03:50:30;;;;;;;14.15;7.00;;;;;;;-3.02;77.82;102297.36;1815499;79;21298;-76
2021/11/16 03:53:35;;;;;;;12.80;5.83;;;;;;;-3.02;77.88;102296.48;1815932;79;21302;-76
2021/11/16 03:56:40;;;;;;;14.85;6.22;;;;;;;-3.10;78.00;102299.39;1815635;79;21274;-76
2021/11/16 03:59:46;;;;;;;13.20;6.45;;;;;;;-3.11;78.13;102304.30;1813972;79;21230;-76
2021/11/16 04:02:53;;;;;;;9.20;5.40;;;;;;;-3.17;78.21;102291.08;1815781;79;21333;-77
2021/11/16 04:06:00;;;;;;;12.23;5.95;;;;;;;-3.16;78.33;102297.72;1814315;79;21324;-76
2021/11/16 04:09:06;;;;;;;12.47;5.58;;;;;;;-3.14;78.45;102296.37;1815836;79;21770;-76
2021/11/16 04:12:12;;;;;;;10.60;6.08;;;;;;;-3.10;78.40;102302.94;1816845;77;21803;-76
2021/11/16 04:15:21;;;;;;;10.00;5.37;;;;;;;-3.12;78.37;102303.42;1814171;79;21327;-75
2021/11/16 04:18:28;;;;;;;10.72;4.95;;;;;;;-3.08;78.43;102316.27;1814278;79;21469;-76
2021/11/16 04:21:34;;;;;;;13.15;5.55;;;;;;;-3.08;78.42;102300.20;1813850;79;21157;-76
2021/11/16 04:24:40;;;;;;;12.68;5.70;;;;;;;-3.12;78.31;102305.22;1777164;80;21337;-76
2021/11/16 04:27:47;;;;;;;12.88;6.12;;;;;;;-3.19;78.44;102308.99;1763341;80;21838;-76
2021/11/16 04:30:52;;;;;;;11.53;5.62;;;;;;;-3.28;78.72;102309.23;1746941;81;21307;-76
2021/11/16 04:33:58;;;;;;;10.28;5.37;;;;;;;-3.31;78.86;102311.97;1774131;81;21890;-76
2021/11/16 04:37:04;;;;;;;10.50;5.50;;;;;;;-3.37;79.01;102309.88;1761446;81;21273;-76
2021/11/16 04:40:09;;;;;;;10.05;5.90;;;;;;;-3.41;79.11;102319.36;1753615;81;21287;-76
2021/11/16 04:43:20;;;;;;;8.73;5.30;;;;;;;-3.51;79.44;102317.83;1725761;82;21778;-76
2021/11/16 04:46:25;;;;;;;12.55;4.95;;;;;;;-3.54;79.65;102316.09;1739179;81;21833;-76
2021/11/16 04:49:41;;;;;;;13.32;5.17;;;;;;;-3.63;79.75;102313.17;1741413;82;21212;-76
2021/11/16 05:02:41;;;;;;;12.05;4.83;;;;;;;-3.63;79.77;102321.66;1753931;81;21235;-76
2021/11/16 05:05:47;;;;;;;11.85;5.37;;;;;;;-3.61;79.82;102322.52;1742117;82;21284;-76
2021/11/16 05:08:52;;;;;;;8.20;5.12;;;;;;;-3.58;79.60;102318.41;1742239;82;21236;-76
2021/11/16 05:11:58;;;;;;;7.97;4.40;;;;;;;-3.63;79.63;102318.98;1713671;83;21327;-76
2021/11/16 05:15:06;;;;;;;8.83;4.47;;;;;;;-3.67;79.71;102329.33;1743329;82;21225;-77
2021/11/16 05:18:11;;;;;;;10.05;4.67;;;;;;;-3.63;79.85;102335.03;1719197;82;21275;-77
2021/11/16 05:21:17;;;;;;;7.33;4.12;;;;;;;-3.55;79.80;102338.87;1770443;81;21366;-77
2021/11/16 05:24:26;;;;;;;8.50;4.30;;;;;;;-3.50;79.66;102337.84;1762800;81;21185;-76
2021/11/16 05:27:32;;;;;;;10.28;4.40;;;;;;;-3.41;79.66;102348.79;1764220;81;21323;-77
2021/11/16 05:30:37;;;;;;;6.50;4.20;;;;;;;-3.29;79.40;102347.59;1741473;82;21922;-76
2021/11/16 05:33:43;;;;;;;7.97;4.00;;;;;;;-3.24;78.84;102344.38;1732193;80;21212;-76
2021/11/16 05:36:48;;;;;;;6.45;3.95;;;;;;;-3.26;78.68;102351.55;1759841;80;21281;-77
2021/11/16 05:39:54;;;;;;;6.78;3.65;;;;;;;-3.24;78.73;102356.41;1747282;81;21289;-77
2021/11/16 05:42:59;;;;;;;8.40;3.95;;;;;;;-3.23;78.83;102363.52;1762413;80;21141;-76
2021/11/16 05:46:04;;;;;;;9.43;4.47;;;;;;;-3.19;78.94;102364.75;1759585;80;21319;-77
2021/11/16 05:49:10;;;;;;;7.70;4.65;;;;;;;-3.09;79.02;102372.08;1746338;81;21323;-77
2021/11/16 05:52:17;;;;;;;8.20;4.20;;;;;;;-2.99;78.74;102367.38;1755423;80;21284;-77
2021/11/16 05:55:23;;;;;;;6.72;3.90;;;;;;;-2.90;78.75;102375.17;1782561;79;21890;-83
2021/11/16 05:58:33;;;;;;;8.80;4.00;;;;;;;-2.80;78.64;102370.45;1759494;80;21238;-76
2021/11/16 06:01:41;;;;;;;7.90;4.28;;;;;;;-2.69;78.47;102386.64;1777966;79;21979;-79
2021/11/16 06:04:48;;;;;;;8.53;4.25;;;;;;;-2.62;78.11;102382.89;1755542;80;21696;-80
2021/11/16 06:07:53;;;;;;;6.70;3.95;;;;;;;-2.57;77.90;102376.94;1781353;79;21902;-80
2021/11/16 06:10:58;;;;;;;6.35;4.10;;;;;;;-2.51;77.86;102387.94;1760355;80;22393;-75
2021/11/16 06:14:07;;;;;;;8.75;3.90;;;;;;;-2.45;77.87;102393.59;1761301;80;21272;-81
2021/11/16 06:17:14;;;;;;;9.30;4.42;;;;;;;-2.39;77.56;102388.95;1744227;80;22603;-86
2021/11/16 06:20:30;;;;;;;5.70;3.55;;;;;;;-2.33;77.25;102390.58;1728778;80;21393;-79
2021/11/16 06:23:38;;;;;;;6.17;4.33;;;;;;;-2.26;77.37;102396.63;1754050;80;21623;-76
2021/11/16 06:26:44;;;;;;;23.20;19.07;;;;;;;-2.18;77.35;102391.94;1754198;80;21310;-80
2021/11/16 06:29:50;;;;;;;14.98;9.95;;;;;;;-2.07;77.21;102393.84;1752548;80;21232;-77
2021/11/16 06:32:56;;;;;;;55.58;41.30;;;;;;;-1.95;76.35;102390.81;1722457;80;21200;-78
2021/11/16 06:36:02;;;;;;;16.17;9.55;;;;;;;-1.89;75.99;102386.59;1751095;80;21634;-77
2021/11/16 06:39:16;;;;;;;26.42;18.27;;;;;;;-1.83;75.54;102390.45;1751752;80;21326;-79
2021/11/16 06:42:24;;;;;;;24.52;18.15;;;;;;;-1.77;75.47;102395.22;1723728;80;21244;-79
2021/11/16 06:45:31;;;;;;;41.75;29.30;;;;;;;-1.69;75.52;102382.45;1749658;80;21196;-79
2021/11/16 06:48:36;;;;;;;34.98;29.80;;;;;;;-1.61;75.13;102389.78;1728028;80;21196;-77
2021/11/16 06:51:42;;;;;;;45.83;40.30;;;;;;;-1.53;74.35;102393.58;1752021;80;21880;-77
2021/11/16 06:54:49;;;;;;;42.40;35.50;;;;;;;-1.52;73.70;102390.83;1755938;80;21326;-78
2021/11/16 06:57:55;;;;;;;27.40;22.95;;;;;;;-1.50;73.65;102391.69;1756039;80;21556;-78
2021/11/16 07:01:11;;;;;;;56.90;46.95;;;;;;;-1.44;72.85;102383.42;1720117;80;21263;-78
2021/11/16 07:04:29;;;;;;;17.48;9.80;;;;;;;-1.38;71.89;102383.69;1755194;80;21322;-77
2021/11/16 07:07:46;;;;;;;82.88;73.20;;;;;;;-1.32;72.06;102378.11;1753381;80;21322;-78
2021/11/16 07:10:53;;;;;;;19.12;13.48;;;;;;;-1.25;71.54;102369.41;1751027;80;21653;-78
2021/11/16 07:14:14;;;;;;;34.75;28.38;;;;;;;-1.18;71.38;102372.29;1754138;80;21915;-78
2021/11/16 07:17:24;;;;;;;66.55;59.33;;;;;;;-1.07;71.67;102382.23;1667999;83;21209;-77
2021/11/16 07:20:29;;;;;;;32.33;27.17;;;;;;;-0.95;71.24;102375.08;1716088;82;21870;-76
2021/11/16 07:23:35;;;;;;;8.50;6.05;;;;;;;-0.87;70.71;102379.73;1694883;83;21603;-75
2021/11/16 07:26:42;;;;;;;10.05;7.22;;;;;;;-0.78;70.25;102382.11;1721910;82;22481;-77
2021/11/16 07:29:58;;;;;;;13.10;10.65;;;;;;;-0.67;69.75;102380.84;1698689;82;21239;-77
2021/11/16 07:33:14;;;;;;;11.85;7.53;;;;;;;-0.59;68.39;102367.55;1715804;82;21289;-77
2021/11/16 07:36:18;;;;;;;14.00;11.63;;;;;;;-0.52;68.09;102370.45;1732014;79;21318;-77
2021/11/16 07:39:24;;;;;;;13.78;10.90;;;;;;;-0.44;67.78;102378.22;1804563;77;21845;-77
2021/11/16 07:42:36;;;;;;;9.63;6.03;;;;;;;-0.35;67.04;102368.95;1799939;77;22360;-82
2021/11/16 07:45:56;;;;;;;4.60;3.42;;;;;;;-0.31;66.75;102370.59;1743066;80;21285;-83
2021/11/16 07:49:09;;;;;;;8.33;6.42;;;;;;;-0.27;66.65;102377.15;1751060;77;21266;-81
2021/11/16 07:52:16;;;;;;;;;;;;;;;-0.16;66.58;102369.14;1806040;77;21288;-81
2021/11/16 07:55:31;;;;;;;20.45;12.20;;;;;;;-0.09;65.58;102364.83;1801838;77;20230;-78
2021/11/16 07:58:41;;;;;;;40.55;31.30;;;;;;;-0.07;64.93;102366.11;1800895;77;21173;-78
2021/11/16 08:01:57;;;;;;;33.33;27.85;;;;;;;-0.02;64.52;102359.61;1800867;77;21353;-78
2021/11/16 08:05:10;;;;;;;6.47;3.30;;;;;;;0.04;64.10;102349.08;1806240;77;21485;-79
2021/11/16 08:11:50;;;;;;;18.70;15.28;;;;;;;0.09;63.94;102347.08;1782448;77;21159;-78
2021/11/16 08:14:54;;;;;;;33.45;27.40;;;;;;;0.13;63.60;102352.75;1789769;77;21272;-78
2021/11/16 08:18:00;;;;;;;17.40;13.65;;;;;;;0.20;63.18;102345.34;1745310;80;21284;-78
2021/11/16 08:21:10;;;;;;;12.82;8.18;;;;;;;0.22;62.07;102349.70;1780642;77;21619;-78
2021/11/16 08:24:22;;;;;;;11.75;7.72;;;;;;;0.20;62.07;102343.52;1802447;77;21281;-78
2021/11/16 08:27:39;;;;;;;8.15;5.55;;;;;;;0.27;62.65;102335.20;1801792;77;21325;-77
2021/11/16 08:30:43;;;;;;;9.30;6.20;;;;;;;0.33;61.71;102334.50;1788277;77;21293;-79
2021/11/16 08:33:49;;;;;;;4.47;3.08;;;;;;;0.35;61.72;102343.85;1775012;77;21181;-77
2021/11/16 08:37:03;;;;;;;7.87;3.35;;;;;;;0.36;61.31;102339.74;1801828;77;21336;-77
2021/11/16 08:40:20;;;;;;;13.53;11.35;;;;;;;0.44;61.04;102338.09;1793984;77;22009;-78
2021/11/16 08:43:38;;;;;;;15.03;11.70;;;;;;;0.46;60.78;102334.86;1724803;81;22310;-76
2021/11/16 08:46:37;;;;;;;12.00;5.85;;;;;;;0.52;60.90;102341.37;1742415;80;21690;-77
2021/11/16 08:49:43;;;;;;;4.85;2.52;;;;;;;0.58;59.61;102330.81;1736646;80;21360;-78
2021/11/16 08:52:49;;;;;;;5.42;1.98;;;;;;;0.61;59.55;102332.00;1702405;81;21268;-77
2021/11/16 08:55:56;;;;;;;52.08;43.52;;;;;;;0.63;59.09;102320.72;1724787;81;21240;-78
2021/11/16 08:59:01;;;;;;;4.12;2.95;;;;;;;0.62;58.61;102316.28;1722765;80;21255;-77
2021/11/16 09:18:30;;;;;;;10.48;5.95;;;;;;;0.77;58.49;102290.04;1698436;82;21279;-77
2021/11/16 09:21:45;;;;;;;16.27;14.23;;;;;;;0.76;58.01;102290.52;1707211;82;21237;-77
2021/11/16 09:24:51;;;;;;;6.87;3.98;;;;;;;0.78;58.20;102286.40;1703718;82;21191;-76
2021/11/16 09:28:05;;;;;;;6.83;4.75;;;;;;;0.84;57.85;102285.25;1707864;82;21338;-82
2021/11/16 09:31:31;;;;;;;9.50;4.90;;;;;;;0.83;57.87;102288.89;1702410;82;21212;-77
2021/11/16 09:37:16;;;;;;;5.50;2.00;;;;;;;0.90;57.70;102273.76;1840989;76;28206;-77
2021/11/16 09:40:24;;;;;;;12.33;10.13;;;;;;;0.91;57.73;102281.37;1818620;77;21403;-77
2021/11/16 09:43:34;;;;;;;16.52;12.68;;;;;;;0.92;57.67;102269.64;1803332;77;21893;-78
2021/11/16 09:46:39;;;;;;;;;;;;;;;0.90;57.50;102276.45;1829400;77;21232;-78
2021/11/16 09:49:51;;;;;;;28.05;21.60;;;;;;;0.90;57.62;102274.23;1819678;77;20297;-79
2021/11/16 09:53:06;;;;;;;7.05;4.65;;;;;;;0.90;57.71;102259.41;1817372;77;21367;-79
2021/11/16 09:56:11;;;;;;;7.92;6.22;;;;;;;0.93;58.05;102256.56;1819936;77;21321;-78
2021/11/16 09:59:37;;;;;;;13.18;9.98;;;;;;;0.97;57.93;102264.45;1796876;77;22315;-78
2021/11/16 10:02:42;;;;;;;46.77;41.58;;;;;;;1.02;57.71;102253.47;1816862;77;21220;-78
2021/11/16 10:05:53;;;;;;;37.63;30.90;;;;;;;1.06;57.78;102248.34;1824041;77;21588;-78
2021/11/16 10:09:00;;;;;;;8.73;7.58;;;;;;;1.08;57.46;102250.97;1819264;77;21249;-78
2021/11/16 10:12:08;;;;;;;29.18;24.40;;;;;;;1.06;57.20;102238.91;1819694;77;21295;-78
2021/11/16 10:15:21;;;;;;;17.23;13.90;;;;;;;1.09;57.45;102231.19;1818689;77;21228;-77
2021/11/16 10:18:28;;;;;;;21.07;18.42;;;;;;;1.11;57.63;102228.80;1797401;77;21282;-79
2021/11/16 10:21:34;;;;;;;3.15;2.33;;;;;;;1.15;57.59;102241.20;1820036;77;21255;-78
2021/11/16 10:24:45;;;;;;;4.87;1.80;;;;;;;1.23;57.65;102230.95;1811718;77;21267;-77
2021/11/16 10:27:56;;;;;;;;;;;;;;;1.33;57.54;102221.10;1775360;77;21322;-78
2021/11/16 10:31:39;;;;;;;22.85;18.82;;;;;;;1.41;57.02;102220.25;1782217;78;20741;-77
2021/11/16 10:34:50;;;;;;;4.20;3.10;;;;;;;1.41;57.02;102207.67;1799174;78;21664;-78
2021/11/16 10:38:08;;;;;;;3.50;1.57;;;;;;;1.47;56.51;102210.55;1789169;78;21317;-77
2021/11/16 10:41:15;;;;;;;4.75;3.05;;;;;;;1.48;56.26;102209.13;1793462;78;21184;-78
2021/11/16 10:44:27;;;;;;;10.97;9.07;;;;;;;1.53;56.25;102195.42;1790551;78;21316;-78
2021/11/16 10:47:44;;;;;;;3.47;2.10;;;;;;;1.53;56.22;102198.12;1745913;80;21201;-78
2021/11/16 10:50:53;;;;;;;2.25;1.85;;;;;;;1.50;56.28;102191.51;1790804;79;21358;-78
2021/11/16 10:54:02;;;;;;;1.55;1.45;;;;;;;1.50;56.17;102172.63;1788116;78;21287;-79
2021/11/16 10:57:09;;;;;;;10.13;3.05;;;;;;;1.50;55.84;102175.33;1790121;78;21202;-78
2021/11/16 11:00:18;;;;;;;2.17;1.77;;;;;;;1.55;55.88;102169.23;1789503;79;21283;-78
2021/11/16 11:07:26;;;;;;;9.58;8.58;;;;;;;1.55;55.03;102158.45;1759637;79;21314;-78
2021/11/16 11:10:33;;;;;;;7.05;4.47;;;;;;;1.53;55.46;102153.62;1788217;79;21346;-78
2021/11/16 11:13:58;;;;;;;8.60;3.33;;;;;;;1.51;55.56;102151.48;1787052;79;21462;-76
2021/11/16 11:17:24;;;;;;;9.48;5.75;;;;;;;1.53;55.67;102145.52;1722824;81;21643;-79
2021/11/16 11:20:30;;;;;;;4.22;3.20;;;;;;;1.53;56.24;102136.08;1737270;81;21205;-78
2021/11/16 11:23:53;;;;;;;2.83;1.87;;;;;;;1.56;56.28;102140.47;1784795;79;21782;-78
2021/11/16 11:30:26;;;;;;;4.85;3.67;;;;;;;1.60;55.65;102136.65;1790292;79;21374;-77
2021/11/16 11:33:57;;;;;;;14.60;10.30;;;;;;;1.62;55.67;102130.73;1783328;78;21219;-80
2021/11/16 11:37:20;;;;;;;10.30;4.15;;;;;;;1.62;56.20;102116.77;1746446;80;21353;-76
2021/11/16 11:40:40;;;;;;;16.97;12.70;;;;;;;1.66;55.87;102113.45;1784029;78;22189;-77
2021/11/16 11:43:52;;;;;;;12.82;8.68;;;;;;;1.68;55.55;102109.70;1788548;79;21442;-77
2021/11/16 11:47:09;;;;;;;10.88;9.68;;;;;;;1.70;55.80;102102.43;1783029;79;21288;-77
2021/11/16 11:50:44;;;;;;;4.22;2.52;;;;;;;1.69;55.70;102102.48;1785858;79;21188;-78
2021/11/16 11:53:52;;;;;;;3.98;2.30;;;;;;;1.69;55.79;102097.95;1777031;79;21317;-78
2021/11/16 11:57:00;;;;;;;3.90;2.52;;;;;;;1.71;56.12;102095.20;1777023;79;21216;-78
2021/11/16 12:00:13;;;;;;;16.95;13.62;;;;;;;1.74;55.89;102095.94;1784094;79;21154;-78
2021/11/16 12:03:20;;;;;;;10.70;5.87;;;;;;;1.78;55.77;102085.84;1782934;79;21389;-78
2021/11/16 12:06:25;;;;;;;20.40;18.20;;;;;;;1.80;55.80;102093.41;1782154;79;21142;-78
2021/11/16 12:09:31;;;;;;;27.22;14.47;;;;;;;1.83;55.43;102084.27;1786005;79;21327;-78
2021/11/16 12:16:13;;;;;;;14.30;2.90;;;;;;;1.75;55.73;102090.93;1760787;79;21221;-76
2021/11/16 12:19:22;;;;;;;10.55;2.80;;;;;;;1.75;55.83;102086.02;1780520;79;21206;-77
2021/11/16 12:22:37;;;;;;;4.25;2.90;;;;;;;1.76;56.20;102087.28;1784867;79;21238;-76
2021/11/16 12:25:43;;;;;;;5.35;3.37;;;;;;;1.78;56.12;102083.14;1786577;78;21455;-77
2021/11/16 12:28:50;;;;;;;5.37;3.42;;;;;;;1.77;55.69;102067.91;1786028;79;21197;-76
2021/11/16 12:31:57;;;;;;;7.33;2.65;;;;;;;1.77;55.80;102074.17;1784711;79;21354;-77
2021/11/16 12:35:19;;;;;;;4.47;2.50;;;;;;;1.79;55.88;102077.69;1780606;79;21617;-77
2021/11/16 12:38:24;;;;;;;4.70;2.50;;;;;;;1.79;55.89;102063.33;1777426;79;21524;-77
2021/11/16 12:41:40;;;;;;;6.42;2.90;;;;;;;1.81;55.97;102064.59;1793156;79;21481;-78
2021/11/16 12:45:00;;;;;;;4.42;2.40;;;;;;;1.79;56.07;102058.80;1796619;78;21240;-78
2021/11/16 12:48:06;;;;;;;6.28;3.35;;;;;;;1.78;56.41;102063.77;1769016;78;21208;-79
2021/11/16 12:51:21;;;;;;;7.10;3.60;;;;;;;1.79;56.82;102060.16;1796114;78;21201;-78
2021/11/16 12:54:33;;;;;;;4.97;2.83;;;;;;;1.75;56.24;102056.34;1794057;79;21224;-79
2021/11/16 12:57:42;;;;;;;6.05;2.77;;;;;;;1.69;56.12;102048.05;1794393;78;21490;-81
2021/11/16 13:00:52;;;;;;;4.72;2.72;;;;;;;1.68;56.29;102045.44;1764757;77;21252;-77
2021/11/16 13:04:06;;;;;;;4.62;2.80;;;;;;;1.68;56.59;102046.31;1796366;78;21564;-79
2021/11/16 13:07:26;;;;;;;3.60;2.60;;;;;;;1.70;56.58;102047.61;1797677;78;21173;-76
2021/11/16 13:10:33;;;;;;;;;;;;;;;1.67;56.03;102040.52;1794016;79;21195;-77
2021/11/16 13:13:49;;;;;;;6.45;2.80;;;;;;;1.65;55.83;102047.84;1768187;79;20196;-77
2021/11/16 13:16:54;;;;;;;5.60;2.85;;;;;;;1.61;55.89;102050.28;1806251;78;21169;-78
2021/11/16 13:20:11;;;;;;;8.45;2.90;;;;;;;1.61;56.16;102045.36;1803752;78;21255;-77
2021/11/16 13:23:39;;;;;;;5.53;2.92;;;;;;;1.56;56.50;102036.63;1801346;78;22418;-78
2021/11/16 13:27:01;;;;;;;6.20;3.17;;;;;;;1.49;56.83;102045.00;1796329;78;21283;-78
2021/11/16 13:30:27;;;;;;;5.20;2.42;;;;;;;1.49;56.98;102038.73;1799186;79;21214;-78
2021/11/16 13:33:57;;;;;;;8.98;2.95;;;;;;;1.48;57.00;102033.83;1796914;78;21346;-77
2021/11/16 13:37:25;;;;;;;5.55;3.37;;;;;;;1.45;57.10;102031.75;1803681;78;21367;-75
2021/11/16 13:40:30;;;;;;;6.25;3.22;;;;;;;1.39;57.39;102021.27;1796698;77;21778;-78
2021/11/16 13:43:37;;;;;;;7.53;3.47;;;;;;;1.37;57.57;102033.97;1804681;78;21581;-78
2021/11/16 13:46:42;;;;;;;7.50;3.47;;;;;;;1.35;57.41;102026.41;1798568;79;21312;-78
2021/11/16 13:49:56;;;;;;;7.25;3.80;;;;;;;1.30;57.39;102016.33;1782013;78;21628;-77
2021/11/16 13:53:05;;;;;;;11.60;3.72;;;;;;;1.24;57.56;102015.69;1802373;78;21421;-76
2021/11/16 13:56:23;;;;;;;7.15;3.72;;;;;;;1.19;57.68;102008.78;1774100;79;21348;-76
2021/11/16 13:59:30;;;;;;;8.33;3.08;;;;;;;1.11;57.87;102008.27;1768584;79;21321;-77
2021/11/16 14:02:36;;;;;;;4.85;2.27;;;;;;;1.04;58.10;102004.14;1779602;77;21263;-76
2021/11/16 14:05:50;;;;;;;9.95;2.80;;;;;;;0.96;58.35;102007.19;1787808;79;22072;-77
2021/11/16 14:08:56;;;;;;;6.53;2.85;;;;;;;0.87;58.70;102004.93;1794606;79;21363;-77
2021/11/16 14:12:04;;;;;;;6.95;2.98;;;;;;;0.79;59.12;101999.02;1795116;79;21303;-77
2021/11/16 14:15:18;;;;;;;13.63;3.67;;;;;;;0.71;59.39;101993.55;1777205;80;21212;-77
2021/11/16 14:18:26;;;;;;;7.28;3.02;;;;;;;0.64;59.75;101997.45;1798308;78;22609;-76
2021/11/16 14:21:31;;;;;;;7.28;3.40;;;;;;;0.61;60.03;101994.92;1803298;78;21271;-76
2021/11/16 14:24:40;;;;;;;8.45;2.72;;;;;;;0.54;60.24;101986.71;1807267;78;21284;-76
2021/11/16 14:27:48;;;;;;;9.88;3.52;;;;;;;0.46;60.53;101981.67;1820214;78;21874;-77
2021/11/16 14:30:53;;;;;;;5.97;3.27;;;;;;;0.37;60.88;101990.64;1798188;79;21937;-77
2021/11/16 14:34:07;;;;;;;9.48;3.72;;;;;;;0.33;61.18;101987.24;1775077;81;21296;-76
2021/11/16 14:37:13;;;;;;;15.40;4.12;;;;;;;0.31;61.32;101982.86;1817202;78;21347;-76
2021/11/16 14:40:25;;;;;;;6.47;3.77;;;;;;;0.24;61.49;101976.42;1783980;79;21303;-77
2021/11/16 14:43:32;;;;;;;8.90;3.40;;;;;;;0.21;61.77;101979.23;1816102;78;21217;-76
2021/11/16 14:46:38;;;;;;;8.18;3.42;;;;;;;0.17;62.06;101976.27;1777940;80;21640;-77
2021/11/16 14:52:55;;;;;;;8.15;3.67;;;;;;;0.09;62.32;101966.32;1797560;79;21550;-77
2021/11/16 14:55:59;;;;;;;5.65;3.27;;;;;;;0.03;62.53;101973.33;1803417;79;21788;-77
2021/11/16 14:59:16;;;;;;;21.60;4.67;;;;;;;-0.01;62.84;101971.72;1802962;79;21184;-77
2021/11/16 15:02:20;;;;;;;11.93;3.55;;;;;;;-0.08;63.02;101957.67;1802814;79;21333;-77
2021/11/16 15:05:25;;;;;;;6.72;3.80;;;;;;;-0.12;63.31;101964.12;1762051;79;21307;-77
2021/11/16 15:08:32;;;;;;;11.70;4.30;;;;;;;-0.12;63.52;101961.44;1773126;81;21315;-77
2021/11/16 15:11:38;;;;;;;20.40;5.30;;;;;;;-0.16;63.57;101954.92;1773479;81;21300;-76
2021/11/16 15:15:03;;;;;;;11.30;3.90;;;;;;;-0.22;63.86;101953.84;1773349;81;21835;-76
2021/11/16 15:18:05;;;;;;;14.47;5.05;;;;;;;-0.28;64.28;101950.48;1773263;80;21201;-77
2021/11/16 15:21:25;;;;;;;16.67;5.85;;;;;;;-0.35;64.66;101949.47;1771860;81;21189;-77
2021/11/16 15:27:41;;;;;;;16.48;7.08;;;;;;;-0.35;65.34;101954.84;1773583;81;21292;-77
2021/11/16 15:30:58;;;;;;;19.52;6.75;;;;;;;-0.40;65.43;101951.02;1772515;81;21178;-77